createdAt,value
2022-08-12T00:01:11.620Z,96.80
2022-08-12T00:03:56.757Z,96.70
2022-08-12T00:06:43.026Z,96.80
2022-08-12T00:09:28.356Z,96.70
2022-08-12T00:12:14.013Z,96.80
2022-08-12T00:15:02.438Z,96.60
2022-08-12T00:17:49.153Z,96.70
2022-08-12T00:20:34.718Z,96.80
2022-08-12T00:23:20.483Z,96.90
2022-08-12T00:26:23.294Z,96.80
2022-08-12T00:29:12.586Z,96.80
2022-08-12T00:32:00.491Z,97.00
2022-08-12T00:34:49.084Z,97.10
2022-08-12T00:37:39.464Z,97.30
2022-08-12T00:40:28.911Z,97.20
2022-08-12T00:42:57.498Z,97.20
2022-08-12T00:45:24.842Z,97.10
2022-08-12T00:47:53.665Z,97.20
2022-08-12T00:50:23.374Z,97.20
2022-08-12T00:52:52.803Z,97.20
2022-08-12T00:55:21.340Z,97.30
2022-08-12T00:57:50.819Z,97.30
2022-08-12T01:00:24.880Z,97.50
2022-08-12T01:02:58.604Z,97.60
2022-08-12T01:05:45.093Z,97.60
2022-08-12T01:08:31.305Z,97.80
2022-08-12T01:11:17.169Z,97.80
2022-08-12T01:13:48.850Z,97.90
2022-08-12T01:16:22.437Z,98.00
2022-08-12T01:18:51.948Z,98.20
2022-08-12T01:21:27.712Z,98.40
2022-08-12T01:24:31.180Z,98.40
2022-08-12T01:27:00.246Z,98.40
2022-08-12T01:29:33.020Z,98.70
2022-08-12T01:32:08.012Z,98.60
2022-08-12T01:34:38.675Z,98.50
2022-08-12T01:37:09.256Z,98.80
2022-08-12T01:40:32.029Z,98.70
2022-08-12T01:42:55.518Z,98.90
2022-08-12T01:45:24.579Z,99.00
2022-08-12T01:48:12.908Z,98.90
2022-08-12T01:51:13.384Z,99.20
2022-08-12T01:54:14.041Z,99.30
2022-08-12T01:56:59.641Z,99.30
2022-08-12T01:59:56.474Z,99.50
2022-08-12T02:02:37.161Z,99.60
2022-08-12T02:05:45.837Z,99.80
2022-08-12T02:09:10.734Z,99.70
2022-08-12T02:12:09.454Z,99.90
2022-08-12T02:14:46.249Z,99.90
2022-08-12T02:17:54.645Z,99.90
2022-08-12T02:20:52.005Z,99.90
2022-08-12T02:23:26.543Z,99.90
2022-08-12T02:25:59.584Z,99.90
2022-08-12T02:28:27.164Z,99.90
2022-08-12T02:30:55.623Z,99.90
2022-08-12T02:33:23.262Z,99.90
2022-08-12T02:35:51.536Z,99.90
2022-08-12T02:38:21.660Z,99.90
2022-08-12T02:40:54.875Z,99.90
2022-08-12T02:43:50.806Z,99.90
2022-08-12T02:46:29.143Z,99.90
2022-08-12T02:49:04.008Z,99.90
2022-08-12T02:51:34.868Z,99.90
2022-08-12T02:54:06.177Z,99.90
2022-08-12T02:56:50.286Z,99.90
2022-08-12T02:59:22.647Z,99.90
2022-08-12T03:01:56.581Z,99.90
2022-08-12T03:04:30.675Z,99.90
2022-08-12T03:07:14.411Z,99.90
2022-08-12T03:10:16.093Z,99.90
2022-08-12T03:12:49.050Z,99.90
2022-08-12T03:15:22.804Z,99.90
2022-08-12T03:18:29.277Z,99.90
2022-08-12T03:20:59.326Z,99.90
2022-08-12T03:23:30.830Z,99.90
2022-08-12T03:26:03.151Z,99.90
2022-08-12T03:28:54.236Z,99.90
2022-08-12T03:31:30.794Z,99.90
2022-08-12T03:34:07.046Z,99.90
2022-08-12T03:36:37.206Z,99.90
2022-08-12T03:39:16.701Z,99.90
2022-08-12T03:41:58.443Z,99.90
2022-08-12T03:45:51.614Z,99.90
2022-08-12T03:48:39.285Z,99.90
2022-08-12T03:51:24.855Z,99.90
2022-08-12T03:54:11.707Z,99.90
2022-08-12T03:56:58.125Z,99.90
2022-08-12T03:59:43.954Z,99.90
2022-08-12T04:02:17.750Z,99.90
2022-08-12T04:04:46.377Z,99.90
2022-08-12T04:07:16.142Z,99.90
2022-08-12T04:09:46.006Z,99.90
2022-08-12T04:12:32.635Z,99.90
2022-08-12T04:15:01.210Z,99.90
2022-08-12T04:17:28.591Z,99.90
2022-08-12T04:19:58.026Z,99.90
2022-08-12T04:22:30.269Z,99.90
2022-08-12T04:25:02.759Z,99.90
2022-08-12T04:27:31.914Z,99.90
2022-08-12T04:30:30.843Z,99.90
2022-08-12T04:32:49.953Z,99.90
2022-08-12T04:35:17.875Z,99.90
2022-08-12T04:37:58.983Z,99.90
2022-08-12T04:40:31.135Z,99.90
2022-08-12T04:43:01.113Z,99.90
2022-08-12T04:45:29.379Z,99.90
2022-08-12T04:47:56.877Z,99.90
2022-08-12T04:50:33.766Z,99.90
2022-08-12T04:53:08.936Z,99.90
2022-08-12T04:55:38.597Z,99.90
2022-08-12T04:58:07.257Z,99.90
2022-08-12T05:00:35.181Z,99.90
2022-08-12T05:03:02.174Z,99.90
2022-08-12T05:05:35.231Z,99.90
2022-08-12T05:08:03.993Z,99.90
2022-08-12T05:10:33.370Z,99.90
2022-08-12T05:13:09.403Z,99.90
2022-08-12T05:16:03.971Z,99.90
2022-08-12T05:18:29.228Z,99.90
2022-08-12T05:20:58.763Z,99.90
2022-08-12T05:23:26.076Z,99.90
2022-08-12T05:25:57.052Z,99.90
2022-08-12T05:28:27.014Z,99.90
2022-08-12T05:30:55.024Z,99.90
2022-08-12T05:33:26.505Z,99.90
2022-08-12T05:35:53.525Z,99.90
2022-08-12T05:38:39.334Z,99.90
2022-08-12T05:41:18.911Z,99.90
2022-08-12T05:44:08.045Z,99.90
2022-08-12T05:46:36.994Z,99.90
2022-08-12T05:49:05.551Z,99.90
2022-08-12T05:51:40.544Z,99.90
2022-08-12T05:54:09.146Z,99.90
2022-08-12T05:56:36.920Z,99.90
2022-08-12T05:59:09.318Z,99.90
2022-08-12T06:02:11.956Z,99.90
2022-08-12T06:04:24.018Z,99.90
2022-08-12T06:06:53.247Z,99.90
2022-08-12T06:09:22.341Z,99.90
2022-08-12T06:12:05.434Z,99.90
2022-08-12T06:14:38.814Z,99.90
2022-08-12T06:17:08.709Z,99.90
2022-08-12T06:20:22.810Z,99.90
2022-08-12T06:22:25.926Z,99.90
2022-08-12T06:24:53.469Z,99.80
2022-08-12T06:27:21.480Z,99.40
2022-08-12T06:30:09.343Z,99.00
2022-08-12T06:32:35.450Z,99.00
2022-08-12T06:35:24.167Z,99.20
2022-08-12T06:37:57.042Z,99.00
2022-08-12T06:40:44.176Z,99.10
2022-08-12T06:43:11.026Z,97.90
2022-08-12T06:45:47.201Z,97.70
2022-08-12T06:48:14.930Z,97.60
2022-08-12T06:50:42.551Z,96.60
2022-08-12T06:53:11.263Z,95.90
2022-08-12T06:55:39.396Z,95.60
2022-08-12T06:58:25.077Z,96.10
2022-08-12T07:00:52.132Z,95.60
2022-08-12T07:03:25.664Z,95.90
2022-08-12T07:05:52.562Z,94.10
2022-08-12T07:08:19.468Z,94.60
2022-08-12T07:10:57.314Z,94.40
2022-08-12T07:13:25.077Z,94.90
2022-08-12T07:15:56.526Z,93.70
2022-08-12T07:18:30.054Z,93.80
2022-08-12T07:20:58.213Z,94.00
2022-08-12T07:23:25.035Z,93.90
2022-08-12T07:25:56.445Z,93.30
2022-08-12T07:28:28.040Z,93.90
2022-08-12T07:30:57.188Z,93.20
2022-08-12T07:33:28.677Z,93.30
2022-08-12T07:35:58.306Z,93.90
2022-08-12T07:38:33.338Z,93.50
2022-08-12T07:41:15.743Z,93.40
2022-08-12T07:43:49.555Z,93.30
2022-08-12T07:46:39.099Z,93.30
2022-08-12T07:49:16.083Z,93.90
2022-08-12T07:51:44.741Z,93.30
2022-08-12T07:54:13.675Z,92.90
2022-08-12T07:56:43.251Z,92.70
2022-08-12T07:59:10.356Z,92.10
2022-08-12T08:01:38.345Z,92.40
2022-08-12T08:04:25.269Z,93.00
2022-08-12T08:06:52.423Z,93.30
2022-08-12T08:09:22.365Z,93.30
2022-08-12T08:12:08.192Z,93.50
2022-08-12T08:14:35.202Z,92.60
2022-08-12T08:17:03.681Z,92.70
2022-08-12T08:19:33.513Z,93.50
2022-08-12T08:22:32.032Z,93.20
2022-08-12T08:25:20.190Z,93.50
2022-08-12T08:27:54.840Z,92.50
2022-08-12T08:30:21.758Z,92.40
2022-08-12T08:32:48.716Z,92.20
2022-08-12T08:35:15.878Z,92.40
2022-08-12T08:37:46.958Z,92.10
2022-08-12T08:40:34.087Z,92.20
2022-08-12T08:43:01.195Z,92.70
2022-08-12T08:45:28.737Z,92.20
2022-08-12T08:48:00.091Z,91.80
2022-08-12T08:50:27.503Z,91.80
2022-08-12T08:52:54.351Z,91.20
2022-08-12T08:55:30.028Z,90.80
2022-08-12T08:58:00.354Z,90.80
2022-08-12T09:00:27.552Z,91.20
2022-08-12T09:02:58.673Z,91.70
2022-08-12T09:05:27.919Z,92.00
2022-08-12T09:08:09.101Z,91.80
2022-08-12T09:10:45.346Z,90.40
2022-08-12T09:13:29.377Z,90.70
2022-08-12T09:16:16.309Z,91.00
2022-08-12T09:18:52.147Z,90.00
2022-08-12T09:21:54.095Z,90.40
2022-08-12T09:24:22.224Z,89.20
2022-08-12T09:26:49.687Z,89.80
2022-08-12T09:30:10.787Z,89.20
2022-08-12T09:32:11.580Z,87.80
2022-08-12T09:34:56.817Z,89.30
2022-08-12T09:37:26.483Z,90.00
2022-08-12T09:40:05.288Z,90.70
2022-08-12T09:43:16.798Z,91.80
2022-08-12T09:46:12.070Z,90.60
2022-08-12T09:48:36.589Z,91.20
2022-08-12T09:51:17.086Z,90.40
2022-08-12T09:54:05.494Z,90.70
2022-08-12T09:56:58.401Z,90.00
2022-08-12T10:00:17.330Z,90.00
2022-08-12T10:02:45.959Z,89.30
2022-08-12T10:04:59.483Z,90.00
2022-08-12T10:07:28.676Z,90.60
2022-08-12T10:10:23.056Z,90.60
2022-08-12T10:13:40.050Z,90.60
2022-08-12T10:16:06.352Z,89.30
2022-08-12T10:18:37.265Z,89.60
2022-08-12T10:21:37.533Z,87.50
2022-08-12T10:24:08.285Z,87.70
2022-08-12T10:26:56.621Z,84.30
2022-08-12T10:30:03.670Z,82.70
2022-08-12T10:32:44.341Z,79.30
2022-08-12T10:35:15.344Z,80.20
2022-08-12T10:38:33.380Z,79.40
2022-08-12T10:40:33.420Z,84.20
2022-08-12T10:43:20.097Z,80.90
2022-08-12T10:45:51.731Z,78.90
2022-08-12T10:48:27.110Z,80.00
2022-08-12T10:51:51.830Z,77.80
2022-08-12T10:54:00.972Z,79.90
2022-08-12T10:56:34.836Z,77.80
2022-08-12T10:59:05.105Z,80.70
2022-08-12T11:04:18.410Z,77.50
2022-08-12T11:04:34.192Z,74.70
2022-08-12T11:08:35.126Z,73.80
2022-08-12T11:10:00.787Z,78.20
2022-08-12T11:12:56.674Z,72.60
2022-08-12T11:15:32.938Z,74.00
2022-08-12T11:18:07.652Z,72.80
2022-08-12T11:20:39.585Z,74.60
2022-08-12T11:23:25.206Z,76.70
2022-08-12T11:25:57.517Z,77.30
2022-08-12T11:28:34.152Z,75.70
2022-08-12T11:31:04.078Z,74.40
2022-08-12T11:34:04.362Z,73.40
2022-08-12T11:36:18.282Z,73.10
2022-08-12T11:38:50.792Z,75.50
2022-08-12T11:41:31.721Z,76.20
2022-08-12T11:44:35.278Z,74.50
2022-08-12T11:46:53.231Z,70.10
2022-08-12T11:49:30.826Z,71.30
2022-08-12T11:52:02.006Z,70.30
2022-08-12T11:54:30.175Z,70.20
2022-08-12T11:57:02.521Z,68.70
2022-08-12T12:02:21.312Z,67.00
2022-08-12T12:04:52.571Z,66.60
2022-08-12T12:07:22.568Z,69.70
2022-08-12T12:09:52.899Z,66.30
2022-08-12T12:12:22.898Z,65.80
2022-08-12T12:14:54.673Z,66.70
2022-08-12T12:17:38.003Z,65.10
2022-08-12T12:20:09.358Z,64.10
2022-08-12T12:22:41.773Z,64.70
2022-08-12T12:25:12.864Z,63.50
2022-08-12T12:28:04.018Z,67.10
2022-08-12T12:30:37.238Z,65.60
2022-08-12T12:33:06.196Z,68.30
2022-08-12T12:36:17.148Z,69.20
2022-08-12T12:38:21.057Z,68.70
2022-08-12T12:40:52.963Z,67.40
2022-08-12T12:43:28.687Z,68.00
2022-08-12T12:46:08.773Z,65.60
2022-08-12T12:48:35.747Z,63.80
2022-08-12T12:51:48.465Z,64.80
2022-08-12T12:54:07.523Z,64.10
2022-08-12T12:56:40.364Z,63.80
2022-08-12T12:59:07.476Z,63.50
2022-08-12T13:01:55.093Z,63.70
2022-08-12T13:04:22.531Z,64.60
2022-08-12T13:06:52.068Z,65.50
2022-08-12T13:09:22.801Z,66.40
2022-08-12T13:11:53.478Z,66.60
2022-08-12T13:14:28.275Z,65.70
2022-08-12T13:16:57.462Z,66.70
2022-08-12T13:19:37.478Z,63.70
2022-08-12T13:22:18.456Z,64.10
2022-08-12T13:24:54.507Z,63.10
2022-08-12T13:27:36.415Z,65.10
2022-08-12T13:30:11.282Z,65.70
2022-08-12T13:32:40.577Z,63.60
2022-08-12T13:35:20.284Z,64.80
2022-08-12T13:37:57.257Z,64.10
2022-08-12T13:40:28.395Z,63.50
2022-08-12T13:43:01.702Z,63.20
2022-08-12T13:45:31.106Z,62.50
2022-08-12T13:48:03.777Z,63.50
2022-08-12T13:50:36.240Z,62.10
2022-08-12T13:53:24.061Z,62.90
2022-08-12T13:55:59.446Z,63.50
2022-08-12T13:58:30.199Z,64.10
2022-08-12T14:00:58.549Z,64.10
2022-08-12T14:03:28.636Z,62.20
2022-08-12T14:06:15.387Z,63.90
2022-08-12T14:08:43.268Z,62.90
2022-08-12T14:11:12.617Z,64.20
2022-08-12T14:14:03.754Z,64.70
2022-08-12T14:16:37.384Z,64.30
2022-08-12T14:19:22.577Z,65.40
2022-08-12T14:22:00.815Z,65.50
2022-08-12T14:24:36.951Z,63.60
2022-08-12T14:27:10.420Z,62.50
2022-08-12T14:30:04.483Z,60.60
2022-08-12T14:32:34.639Z,58.90
2022-08-12T14:35:05.106Z,60.30
2022-08-12T14:37:55.574Z,58.00
2022-08-12T14:40:27.763Z,57.90
2022-08-12T14:42:57.100Z,58.20
2022-08-12T14:45:37.191Z,58.00
2022-08-12T14:48:13.388Z,57.90
2022-08-12T14:51:09.568Z,57.70
2022-08-12T14:59:57.380Z,57.40
2022-08-12T15:02:26.445Z,56.90
2022-08-12T15:04:58.989Z,57.20
2022-08-12T15:07:33.786Z,60.00
2022-08-12T15:10:31.237Z,62.00
2022-08-12T15:12:59.065Z,60.60
2022-08-12T15:15:25.892Z,62.70
2022-08-12T15:18:02.464Z,65.90
2022-08-12T15:20:37.593Z,66.30
2022-08-12T15:23:17.524Z,68.00
2022-08-12T15:26:02.911Z,69.60
2022-08-12T15:28:34.121Z,69.30
2022-08-12T15:31:02.681Z,65.60
2022-08-12T15:33:46.016Z,62.10
2022-08-12T15:36:14.614Z,61.50
2022-08-12T15:38:46.434Z,64.50
2022-08-12T15:41:15.330Z,65.60
2022-08-12T15:44:17.128Z,67.50
2022-08-12T15:46:32.532Z,67.90
2022-08-12T15:48:59.529Z,68.30
2022-08-12T15:51:59.921Z,69.20
2022-08-12T15:54:33.781Z,69.00
2022-08-12T15:57:07.556Z,69.30
2022-08-12T15:59:51.986Z,68.60
2022-08-12T16:02:29.796Z,70.20
2022-08-12T16:04:57.601Z,72.40
2022-08-12T16:07:26.000Z,72.90
2022-08-12T16:10:05.367Z,71.90
2022-08-12T16:12:55.009Z,73.30
2022-08-12T16:15:26.351Z,74.50
2022-08-12T16:18:20.030Z,74.30
2022-08-12T16:20:42.548Z,75.60
2022-08-12T16:23:26.703Z,75.60
2022-08-12T16:26:14.904Z,75.40
2022-08-12T16:28:44.342Z,76.80
2022-08-12T16:31:22.605Z,77.50
2022-08-12T16:33:59.849Z,76.80
2022-08-12T16:36:29.440Z,75.60
2022-08-12T16:38:56.917Z,76.80
2022-08-12T16:41:23.880Z,77.40
2022-08-12T16:43:53.293Z,77.80
2022-08-12T16:46:31.787Z,78.70
2022-08-12T16:49:08.658Z,79.30
2022-08-12T16:51:41.792Z,80.50
2022-08-12T16:54:16.115Z,81.80
2022-08-12T16:56:55.337Z,81.60
2022-08-12T16:59:52.728Z,81.20
2022-08-12T17:02:30.081Z,81.20
2022-08-12T17:05:04.626Z,81.10
2022-08-12T17:07:38.138Z,81.80
2022-08-12T17:10:13.838Z,82.60
2022-08-12T17:12:45.419Z,82.90
2022-08-12T17:15:50.904Z,81.80
2022-08-12T17:18:39.333Z,81.70
2022-08-12T17:20:49.559Z,81.60
2022-08-12T17:23:19.261Z,82.30
2022-08-12T17:25:52.910Z,82.00
2022-08-12T17:28:21.403Z,82.70
2022-08-12T17:30:57.312Z,83.20
2022-08-12T17:33:27.776Z,83.30
2022-08-12T17:36:02.845Z,84.00
2022-08-12T17:38:29.694Z,83.90
2022-08-12T17:40:57.653Z,84.60
2022-08-12T17:43:57.797Z,84.30
2022-08-12T17:46:23.633Z,84.10
2022-08-12T17:48:54.902Z,84.10
2022-08-12T17:51:24.283Z,84.10
2022-08-12T17:54:11.256Z,83.50
2022-08-12T17:56:41.147Z,83.10
2022-08-12T17:59:12.475Z,84.20
2022-08-12T18:01:44.453Z,84.00
2022-08-12T18:04:23.166Z,83.70
2022-08-12T18:07:02.259Z,84.70
2022-08-12T18:09:32.066Z,85.40
2022-08-12T18:12:24.494Z,85.50
2022-08-12T18:15:01.887Z,85.70
2022-08-12T18:17:31.306Z,86.40
2022-08-12T18:20:05.480Z,86.00
2022-08-12T18:22:36.276Z,86.10
2022-08-12T18:26:12.730Z,87.30
2022-08-12T18:28:15.404Z,87.30
2022-08-12T18:30:52.206Z,87.20
2022-08-12T18:33:24.599Z,87.70
2022-08-12T18:35:55.706Z,88.20
2022-08-12T18:38:25.829Z,88.60
2022-08-12T18:41:21.590Z,88.80
2022-08-12T18:44:01.253Z,89.00
2022-08-12T18:46:55.338Z,89.60
2022-08-12T18:49:34.894Z,90.10
2022-08-12T18:52:07.762Z,90.40
2022-08-12T18:54:53.313Z,90.50
2022-08-12T18:58:06.222Z,90.40
2022-08-12T19:00:21.181Z,90.50
2022-08-12T19:02:51.072Z,90.90
2022-08-12T19:05:17.930Z,91.10
2022-08-12T19:08:00.148Z,91.10
2022-08-12T19:10:30.230Z,91.40
2022-08-12T19:13:23.530Z,91.70
2022-08-12T19:15:54.538Z,91.90
2022-08-12T19:18:25.760Z,92.30
2022-08-12T19:20:56.714Z,92.50
2022-08-12T19:23:25.421Z,92.70
2022-08-12T19:26:05.069Z,92.90
2022-08-12T19:28:34.437Z,93.20
2022-08-12T19:31:44.586Z,93.40
2022-08-12T19:36:14.470Z,93.50
2022-08-12T19:38:03.546Z,93.90
2022-08-12T19:40:32.951Z,93.90
2022-08-12T19:43:20.214Z,94.20
2022-08-12T19:45:56.783Z,94.20
2022-08-12T19:48:30.412Z,94.20
2022-08-12T19:50:58.086Z,94.30
2022-08-12T19:53:27.454Z,94.30
2022-08-12T19:55:57.312Z,94.50
2022-08-12T19:58:24.949Z,94.60
2022-08-12T20:00:53.762Z,94.60
2022-08-12T20:03:40.435Z,94.70
2022-08-12T20:06:16.020Z,94.90
2022-08-12T20:08:56.503Z,95.00
2022-08-12T20:12:12.720Z,95.20
2022-08-12T20:14:19.843Z,95.30
2022-08-12T20:16:57.828Z,95.50
2022-08-12T20:20:01.620Z,95.50
2022-08-12T20:22:23.979Z,95.90
2022-08-12T20:24:55.219Z,95.90
2022-08-12T20:27:29.691Z,96.20
2022-08-12T20:30:13.551Z,96.10
2022-08-12T20:32:55.469Z,96.10
2022-08-12T20:35:25.139Z,96.30
2022-08-12T20:38:26.556Z,96.30
2022-08-12T20:40:55.838Z,96.40
2022-08-12T20:43:28.444Z,96.50
2022-08-12T20:45:59.200Z,96.70
2022-08-12T20:48:29.379Z,96.80
2022-08-12T20:51:04.214Z,96.80
2022-08-12T20:53:54.291Z,96.80
2022-08-12T20:56:36.686Z,96.90
2022-08-12T20:59:10.431Z,97.00
2022-08-12T21:01:47.784Z,97.10
2022-08-12T21:04:36.598Z,97.20
2022-08-12T21:07:09.457Z,97.30
2022-08-12T21:09:44.136Z,97.60
2022-08-12T21:12:27.614Z,97.80
2022-08-12T21:15:16.596Z,97.90
2022-08-12T21:18:08.885Z,98.10
2022-08-12T21:20:35.514Z,98.20
2022-08-12T21:23:05.735Z,98.30
2022-08-12T21:25:44.481Z,98.50
2022-08-12T21:28:14.036Z,98.90
2022-08-12T21:31:11.222Z,98.60
2022-08-12T21:33:32.134Z,99.10
2022-08-12T21:36:22.662Z,98.90
2022-08-12T21:39:35.817Z,99.10
2022-08-12T21:42:06.942Z,99.40
2022-08-12T21:45:46.608Z,99.40
2022-08-12T21:47:24.244Z,99.60
2022-08-12T21:50:06.626Z,99.70
2022-08-12T21:52:41.013Z,99.90
2022-08-12T21:55:18.784Z,99.90
2022-08-12T21:57:54.933Z,99.90
2022-08-12T22:00:34.281Z,99.90
2022-08-12T22:04:03.694Z,99.90
2022-08-12T22:06:31.236Z,99.90
2022-08-12T22:09:17.237Z,99.90
2022-08-12T22:11:58.650Z,99.90
2022-08-12T22:14:28.761Z,99.90
2022-08-12T22:16:57.958Z,99.90
2022-08-12T22:19:26.769Z,99.90
2022-08-12T22:21:55.879Z,99.90
2022-08-12T22:24:26.419Z,99.90
2022-08-12T22:26:55.491Z,99.90
2022-08-12T22:29:40.799Z,99.90
2022-08-12T22:32:11.515Z,99.90
2022-08-12T22:34:39.478Z,99.90
2022-08-12T22:37:19.858Z,99.90
2022-08-12T22:39:49.183Z,99.90
2022-08-12T22:42:41.023Z,99.90
2022-08-12T22:45:27.555Z,99.90
2022-08-12T22:47:56.036Z,99.90
2022-08-12T22:50:28.531Z,99.90
2022-08-12T22:53:15.160Z,99.90
2022-08-12T22:56:00.501Z,99.90
2022-08-12T22:58:33.537Z,99.90
2022-08-12T23:01:01.898Z,99.90
2022-08-12T23:03:48.281Z,99.90
2022-08-12T23:06:23.674Z,99.90
2022-08-12T23:08:52.352Z,99.90
2022-08-12T23:11:23.508Z,99.90
2022-08-12T23:13:54.947Z,99.90
2022-08-12T23:16:31.616Z,99.90
2022-08-12T23:19:23.221Z,99.90
2022-08-12T23:22:06.761Z,99.90
2022-08-12T23:24:55.541Z,99.90
2022-08-12T23:27:52.051Z,99.90
2022-08-12T23:30:32.307Z,99.90
2022-08-12T23:33:13.121Z,99.90
2022-08-12T23:35:54.062Z,99.90
2022-08-12T23:38:32.236Z,99.90
2022-08-12T23:41:02.266Z,99.90
2022-08-12T23:43:39.897Z,99.90
2022-08-12T23:46:19.208Z,99.90
2022-08-12T23:48:48.084Z,99.90
2022-08-12T23:51:22.353Z,99.90
2022-08-12T23:54:00.136Z,99.90
2022-08-12T23:56:32.846Z,99.90
2022-08-12T23:59:07.688Z,99.90
